createdAt,value
2023-05-20T00:00:49.121Z,2.25
2023-05-20T00:03:17.746Z,2.60
2023-05-20T00:05:44.987Z,2.15
2023-05-20T00:08:12.015Z,2.22
2023-05-20T00:10:39.681Z,2.30
2023-05-20T00:13:07.188Z,2.50
2023-05-20T00:15:36.254Z,2.22
2023-05-20T00:18:04.268Z,2.45
2023-05-20T00:20:31.337Z,2.40
2023-05-20T00:22:58.201Z,2.60
2023-05-20T00:25:25.345Z,2.53
2023-05-20T00:27:52.395Z,2.53
2023-05-20T00:30:19.445Z,2.50
2023-05-20T00:32:46.377Z,2.00
2023-05-20T00:35:14.011Z,2.08
2023-05-20T00:37:40.874Z,2.53
2023-05-20T00:40:08.626Z,2.70
2023-05-20T00:42:35.653Z,2.70
2023-05-20T00:45:02.637Z,2.90
2023-05-20T00:47:33.768Z,2.80
2023-05-20T00:50:01.160Z,2.70
2023-05-20T00:52:32.078Z,2.70
2023-05-20T00:54:59.990Z,3.07
2023-05-20T00:57:27.470Z,2.87
2023-05-20T00:59:55.108Z,2.90
2023-05-20T01:02:23.119Z,2.63
2023-05-20T01:04:50.297Z,2.50
2023-05-20T01:07:19.114Z,3.20
2023-05-20T01:09:46.374Z,2.67
2023-05-20T01:12:23.607Z,2.80
2023-05-20T01:15:00.476Z,2.90
2023-05-20T01:17:31.248Z,3.33
2023-05-20T01:20:00.332Z,2.83
2023-05-20T01:22:28.585Z,2.97
2023-05-20T01:24:57.168Z,3.08
2023-05-20T01:27:24.529Z,2.80
2023-05-20T01:29:53.305Z,2.90
2023-05-20T01:32:32.722Z,2.53
2023-05-20T01:35:00.879Z,2.80
2023-05-20T01:37:29.509Z,3.10
2023-05-20T01:39:57.829Z,2.93
2023-05-20T01:42:28.449Z,2.70
2023-05-20T01:44:55.500Z,2.90
2023-05-20T01:47:22.372Z,2.72
2023-05-20T01:49:49.619Z,2.97
2023-05-20T01:52:16.707Z,3.03
2023-05-20T01:54:43.605Z,3.20
2023-05-20T01:57:10.678Z,2.95
2023-05-20T01:59:37.578Z,3.13
2023-05-20T02:02:04.725Z,3.20
2023-05-20T02:04:31.604Z,2.97
2023-05-20T02:06:58.448Z,2.83
2023-05-20T02:09:25.552Z,2.92
2023-05-20T02:11:52.704Z,3.10
2023-05-20T02:14:19.695Z,3.07
2023-05-20T02:16:47.811Z,2.97
2023-05-20T02:19:19.782Z,2.90
2023-05-20T02:21:48.965Z,3.00
2023-05-20T02:24:16.284Z,3.00
2023-05-20T02:26:44.644Z,2.78
2023-05-20T02:29:11.520Z,3.07
2023-05-20T02:31:38.377Z,3.07
2023-05-20T02:34:05.362Z,2.83
2023-05-20T02:36:32.516Z,2.77
2023-05-20T02:39:01.323Z,2.83
2023-05-20T02:41:28.341Z,2.97
2023-05-20T02:43:55.372Z,2.90
2023-05-20T02:46:22.378Z,3.20
2023-05-20T02:48:49.245Z,3.10
2023-05-20T02:51:16.151Z,2.80
2023-05-20T02:53:43.067Z,3.00
2023-05-20T02:56:10.044Z,3.10
2023-05-20T02:58:37.313Z,2.80
2023-05-20T03:01:04.203Z,3.47
2023-05-20T03:03:31.405Z,3.10
2023-05-20T03:05:58.352Z,2.97
2023-05-20T03:08:25.424Z,3.50
2023-05-20T03:10:52.273Z,2.87
2023-05-20T03:13:19.125Z,3.57
2023-05-20T03:15:46.351Z,3.40
2023-05-20T03:18:13.894Z,3.63
2023-05-20T03:20:41.690Z,3.80
2023-05-20T03:23:09.535Z,4.00
2023-05-20T03:25:37.980Z,3.50
2023-05-20T03:28:06.754Z,3.47
2023-05-20T03:30:33.939Z,3.83
2023-05-20T03:33:02.921Z,3.27
2023-05-20T03:35:30.101Z,3.83
2023-05-20T03:37:56.964Z,3.53
2023-05-20T03:40:24.208Z,3.37
2023-05-20T03:42:52.183Z,3.70
2023-05-20T03:45:19.302Z,4.17
2023-05-20T03:47:46.278Z,3.97
2023-05-20T03:50:13.222Z,3.93
2023-05-20T03:52:40.973Z,3.73
2023-05-20T03:55:08.940Z,3.77
2023-05-20T03:57:36.675Z,4.30
2023-05-20T04:00:12.204Z,3.97
2023-05-20T04:02:39.303Z,4.03
2023-05-20T04:05:08.967Z,4.30
2023-05-20T04:07:36.290Z,4.23
2023-05-20T04:10:05.374Z,4.60
2023-05-20T04:12:32.733Z,4.13
2023-05-20T04:15:03.796Z,4.10
2023-05-20T04:17:34.024Z,4.40
2023-05-20T04:20:00.863Z,4.20
2023-05-20T04:22:27.903Z,4.40
2023-05-20T04:24:56.468Z,4.10
2023-05-20T04:27:23.775Z,4.33
2023-05-20T04:29:50.721Z,4.05
2023-05-20T04:32:19.498Z,4.32
2023-05-20T04:34:47.049Z,4.23
2023-05-20T04:37:14.435Z,4.25
2023-05-20T04:39:43.650Z,4.10
2023-05-20T04:42:10.785Z,3.95
2023-05-20T04:44:38.022Z,4.07
2023-05-20T04:47:07.922Z,4.38
2023-05-20T04:49:34.839Z,4.05
2023-05-20T04:52:01.720Z,4.03
2023-05-20T04:54:28.578Z,3.88
2023-05-20T04:56:55.475Z,3.80
2023-05-20T04:59:22.651Z,3.80
2023-05-20T05:01:49.596Z,3.88
2023-05-20T05:04:16.676Z,4.03
2023-05-20T05:06:43.605Z,4.05
2023-05-20T05:09:10.502Z,4.05
2023-05-20T05:11:37.409Z,4.40
2023-05-20T05:14:04.269Z,4.03
2023-05-20T05:16:31.239Z,4.20
2023-05-20T05:18:58.194Z,4.30
2023-05-20T05:21:25.123Z,4.07
2023-05-20T05:23:52.198Z,4.38
2023-05-20T05:26:19.073Z,4.10
2023-05-20T05:28:46.141Z,6.80
2023-05-20T05:31:13.066Z,6.43
2023-05-20T05:33:39.973Z,4.97
2023-05-20T05:36:06.956Z,5.00
2023-05-20T05:38:33.891Z,4.63
2023-05-20T05:41:01.316Z,4.95
2023-05-20T05:43:28.301Z,4.50
2023-05-20T05:45:55.286Z,4.32
2023-05-20T05:48:23.157Z,4.57
2023-05-20T05:50:50.034Z,4.00
2023-05-20T05:53:17.234Z,4.25
2023-05-20T05:55:47.153Z,4.68
2023-05-20T05:58:14.303Z,4.10
2023-05-20T06:00:41.179Z,4.30
2023-05-20T06:03:08.308Z,4.45
2023-05-20T06:05:35.429Z,4.00
2023-05-20T06:08:02.641Z,4.20
2023-05-20T06:10:29.567Z,4.57
2023-05-20T06:12:56.734Z,4.20
2023-05-20T06:15:23.631Z,4.50
2023-05-20T06:17:50.650Z,4.22
2023-05-20T06:20:17.674Z,4.15
2023-05-20T06:22:44.575Z,4.13
2023-05-20T06:25:12.448Z,4.13
2023-05-20T06:27:39.367Z,4.10
2023-05-20T06:30:07.238Z,3.80
2023-05-20T06:32:34.145Z,4.13
2023-05-20T06:35:01.349Z,4.03
2023-05-20T06:37:28.794Z,4.00
2023-05-20T06:39:56.011Z,3.90
2023-05-20T06:42:22.956Z,4.00
2023-05-20T06:44:49.867Z,3.38
2023-05-20T06:47:17.970Z,3.70
2023-05-20T06:49:47.539Z,4.03
2023-05-20T06:52:14.713Z,3.55
2023-05-20T06:54:41.915Z,3.40
2023-05-20T06:57:09.664Z,3.35
2023-05-20T06:59:37.874Z,3.65
2023-05-20T07:02:05.611Z,4.30
2023-05-20T07:04:32.634Z,3.72
2023-05-20T07:06:59.656Z,4.00
2023-05-20T07:09:26.543Z,3.78
2023-05-20T07:11:53.587Z,4.30
2023-05-20T07:14:20.453Z,3.60
2023-05-20T07:16:47.412Z,4.18
2023-05-20T07:19:14.440Z,3.75
2023-05-20T07:21:41.448Z,4.00
2023-05-20T07:24:08.420Z,3.88
2023-05-20T07:26:36.515Z,4.15
2023-05-20T07:29:06.735Z,4.18
2023-05-20T07:31:33.827Z,3.97
2023-05-20T07:34:00.851Z,3.42
2023-05-20T07:36:28.827Z,3.53
2023-05-20T07:39:03.281Z,3.80
2023-05-20T07:41:32.158Z,3.95
2023-05-20T07:43:59.095Z,4.00
2023-05-20T07:46:26.216Z,3.92
2023-05-20T07:48:53.480Z,4.00
2023-05-20T07:51:20.581Z,4.07
2023-05-20T07:53:47.806Z,3.55
2023-05-20T07:56:14.686Z,3.65
2023-05-20T07:58:42.734Z,3.50
2023-05-20T08:01:10.132Z,4.32
2023-05-20T08:03:37.198Z,4.05
2023-05-20T08:06:04.481Z,3.67
2023-05-20T08:08:31.469Z,3.47
2023-05-20T08:10:58.405Z,3.65
2023-05-20T08:13:25.282Z,3.85
2023-05-20T08:15:54.900Z,3.90
2023-05-20T08:18:22.964Z,3.70
2023-05-20T08:20:51.098Z,4.03
2023-05-20T08:23:18.012Z,3.42
2023-05-20T08:25:46.866Z,3.50
2023-05-20T08:28:14.257Z,3.55
2023-05-20T08:30:41.567Z,3.70
2023-05-20T08:33:09.004Z,3.72
2023-05-20T08:35:39.608Z,3.58
2023-05-20T08:38:07.204Z,3.50
2023-05-20T08:40:37.483Z,4.18
2023-05-20T08:43:05.090Z,3.53
2023-05-20T08:45:34.595Z,3.58
2023-05-20T08:48:05.006Z,3.97
2023-05-20T08:50:32.322Z,4.00
2023-05-20T08:53:00.050Z,4.03
2023-05-20T08:55:47.296Z,4.05
2023-05-20T08:58:16.287Z,4.07
2023-05-20T09:00:43.418Z,4.20
2023-05-20T09:03:10.475Z,4.15
2023-05-20T09:05:37.506Z,4.18
2023-05-20T09:08:12.676Z,6.50
2023-05-20T09:10:41.875Z,8.60
2023-05-20T09:13:12.018Z,11.48
2023-05-20T09:15:39.538Z,4.82
2023-05-20T09:18:08.860Z,9.48
2023-05-20T09:20:38.153Z,8.02
2023-05-20T09:23:09.652Z,4.18
2023-05-20T09:25:37.970Z,18.50
2023-05-20T09:28:07.755Z,7.80
2023-05-20T09:30:34.869Z,4.20
2023-05-20T09:33:05.098Z,4.43
2023-05-20T09:35:37.850Z,4.18
2023-05-20T09:38:09.756Z,3.85
2023-05-20T09:40:40.508Z,4.10
2023-05-20T09:43:08.810Z,4.10
2023-05-20T09:45:38.511Z,4.15
2023-05-20T09:48:08.871Z,4.32
2023-05-20T09:50:36.788Z,3.85
2023-05-20T09:53:05.029Z,4.30
2023-05-20T09:55:33.020Z,4.15
2023-05-20T09:58:03.497Z,4.10
2023-05-20T10:00:31.593Z,4.45
2023-05-20T10:02:59.606Z,3.53
2023-05-20T10:05:52.302Z,4.38
2023-05-20T10:09:14.566Z,4.25
2023-05-20T10:12:12.583Z,4.00
2023-05-20T10:15:07.253Z,4.00
2023-05-20T10:18:16.399Z,4.47
2023-05-20T10:20:51.377Z,4.70
2023-05-20T10:23:28.632Z,4.53
2023-05-20T10:25:58.272Z,3.88
2023-05-20T10:28:36.387Z,4.03
2023-05-20T10:31:18.685Z,4.35
2023-05-20T10:33:47.311Z,3.60
2023-05-20T10:36:27.852Z,3.95
2023-05-20T10:39:00.754Z,4.22
2023-05-20T10:41:43.209Z,12.30
2023-05-20T10:44:10.178Z,4.40
2023-05-20T10:46:51.434Z,5.05
2023-05-20T10:49:26.852Z,4.32
2023-05-20T10:51:54.770Z,5.00
2023-05-20T10:54:23.120Z,4.50
2023-05-20T10:56:54.250Z,4.78
2023-05-20T10:59:21.977Z,4.47
2023-05-20T11:01:49.212Z,4.00
2023-05-20T11:04:20.068Z,4.55
2023-05-20T11:06:56.094Z,5.03
2023-05-20T11:09:23.448Z,4.85
2023-05-20T11:11:53.561Z,4.40
2023-05-20T11:14:22.277Z,4.45
2023-05-20T11:17:01.791Z,4.28
2023-05-20T11:19:28.978Z,4.85
2023-05-20T11:21:56.152Z,4.35
2023-05-20T11:24:28.587Z,4.25
2023-05-20T11:26:57.514Z,3.38
2023-05-20T11:29:27.361Z,4.43
2023-05-20T11:31:54.804Z,4.20
2023-05-20T11:34:25.812Z,4.78
2023-05-20T11:36:58.937Z,4.13
2023-05-20T11:39:30.537Z,4.43
2023-05-20T11:41:58.969Z,4.20
2023-05-20T11:44:26.411Z,4.40
2023-05-20T11:47:01.930Z,4.60
2023-05-20T11:49:30.707Z,4.60
2023-05-20T11:51:57.837Z,4.65
2023-05-20T11:54:25.359Z,4.18
2023-05-20T11:56:54.846Z,3.85
2023-05-20T11:59:24.920Z,3.90
2023-05-20T12:01:51.816Z,4.18
2023-05-20T12:04:19.156Z,4.40
2023-05-20T12:06:46.860Z,4.32
2023-05-20T12:09:14.595Z,4.13
2023-05-20T12:11:42.111Z,4.50
2023-05-20T12:14:09.401Z,4.35
2023-05-20T12:16:38.068Z,4.45
2023-05-20T12:19:05.670Z,11.77
2023-05-20T12:21:33.007Z,13.75
2023-05-20T12:24:00.388Z,8.27
2023-05-20T12:26:29.234Z,5.00
2023-05-20T12:28:56.400Z,24.80
2023-05-20T12:31:23.593Z,13.98
2023-05-20T12:33:50.868Z,12.32
2023-05-20T12:36:19.495Z,3.50
2023-05-20T12:38:46.729Z,13.63
2023-05-20T12:41:13.747Z,4.50
2023-05-20T12:43:40.694Z,4.80
2023-05-20T12:46:07.758Z,4.65
2023-05-20T12:48:34.699Z,5.20
2023-05-20T12:51:01.567Z,5.18
2023-05-20T12:53:28.436Z,6.10
2023-05-20T12:55:55.551Z,5.65
2023-05-20T12:58:22.603Z,5.97
2023-05-20T13:00:49.918Z,5.63
2023-05-20T13:03:17.008Z,5.75
2023-05-20T13:05:44.088Z,5.70
2023-05-20T13:08:12.676Z,6.13
2023-05-20T13:10:39.658Z,9.98
2023-05-20T13:13:06.727Z,7.82
2023-05-20T13:15:33.784Z,7.25
2023-05-20T13:18:01.615Z,6.97
2023-05-20T13:20:30.145Z,6.70
2023-05-20T13:22:57.146Z,6.00
2023-05-20T13:25:24.084Z,5.68
2023-05-20T13:27:51.027Z,5.25
2023-05-20T13:30:18.225Z,5.10
2023-05-20T13:32:45.315Z,5.68
2023-05-20T13:35:13.158Z,5.22
2023-05-20T13:37:40.106Z,5.80
2023-05-20T13:40:08.647Z,5.13
2023-05-20T13:42:35.510Z,5.18
2023-05-20T13:45:02.461Z,5.53
2023-05-20T13:47:30.201Z,5.22
2023-05-20T13:49:57.152Z,4.90
2023-05-20T13:52:24.088Z,4.85
2023-05-20T13:54:51.066Z,5.22
2023-05-20T13:57:18.177Z,4.85
2023-05-20T13:59:45.073Z,5.30
2023-05-20T14:02:11.997Z,5.20
2023-05-20T14:04:40.230Z,5.03
2023-05-20T14:07:09.524Z,5.05
2023-05-20T14:09:37.030Z,5.47
2023-05-20T14:12:05.093Z,4.25
2023-05-20T14:14:32.210Z,5.40
2023-05-20T14:16:59.103Z,4.78
2023-05-20T14:19:27.192Z,5.10
2023-05-20T14:21:54.463Z,5.10
2023-05-20T14:24:23.453Z,5.65
2023-05-20T14:26:50.785Z,4.90
2023-05-20T14:29:17.780Z,4.70
2023-05-20T14:31:45.020Z,5.50
2023-05-20T14:34:12.098Z,5.20
2023-05-20T14:36:39.571Z,5.25
2023-05-20T14:39:06.489Z,5.03
2023-05-20T14:41:33.462Z,4.25
2023-05-20T14:44:00.716Z,4.60
2023-05-20T14:46:27.830Z,4.60
2023-05-20T14:48:54.876Z,7.75
2023-05-20T14:51:21.737Z,5.55
2023-05-20T14:53:48.596Z,5.32
2023-05-20T14:56:15.629Z,5.40
2023-05-20T14:58:42.584Z,4.85
2023-05-20T15:01:09.542Z,5.53
2023-05-20T15:03:36.704Z,5.45
2023-05-20T15:06:04.102Z,5.20
2023-05-20T15:08:31.404Z,5.80
2023-05-20T15:10:58.369Z,4.90
2023-05-20T15:13:25.349Z,5.65
2023-05-20T15:15:53.048Z,5.97
2023-05-20T15:18:19.985Z,4.78
2023-05-20T15:20:46.920Z,4.90
2023-05-20T15:23:13.929Z,4.68
2023-05-20T15:25:40.849Z,5.43
2023-05-20T15:28:07.904Z,5.40
2023-05-20T15:30:34.921Z,5.78
2023-05-20T15:33:02.889Z,5.47
2023-05-20T15:35:29.927Z,5.28
2023-05-20T15:37:56.917Z,5.03
2023-05-20T15:40:23.779Z,5.53
2023-05-20T15:42:51.468Z,5.82
2023-05-20T15:45:18.511Z,5.47
2023-05-20T15:47:45.410Z,5.72
2023-05-20T15:50:12.587Z,5.82
2023-05-20T15:52:39.617Z,5.68
2023-05-20T15:55:07.672Z,5.95
2023-05-20T15:57:34.613Z,5.05
2023-05-20T16:00:02.265Z,5.93
2023-05-20T16:02:31.661Z,5.50
2023-05-20T16:04:59.400Z,6.70
2023-05-20T16:07:27.213Z,5.50
2023-05-20T16:09:54.254Z,5.88
2023-05-20T16:12:21.245Z,5.28
2023-05-20T16:14:48.166Z,5.43
2023-05-20T16:17:16.876Z,5.25
2023-05-20T16:19:43.802Z,5.30
2023-05-20T16:22:10.684Z,5.10
2023-05-20T16:24:37.575Z,6.55
2023-05-20T16:27:04.859Z,5.85
2023-05-20T16:29:31.812Z,6.03
2023-05-20T16:31:59.453Z,6.07
2023-05-20T16:34:27.773Z,5.38
2023-05-20T16:36:54.724Z,5.72
2023-05-20T16:39:21.676Z,5.43
2023-05-20T16:41:48.604Z,5.82
2023-05-20T16:44:15.653Z,6.22
2023-05-20T16:46:42.888Z,6.20
2023-05-20T16:49:09.788Z,5.78
2023-05-20T16:51:37.020Z,6.00
2023-05-20T16:54:04.002Z,6.50
2023-05-20T16:56:31.178Z,6.30
2023-05-20T16:58:58.054Z,6.82
2023-05-20T17:01:24.975Z,6.22
2023-05-20T17:03:52.015Z,6.45
2023-05-20T17:06:18.999Z,6.45
2023-05-20T17:08:46.132Z,7.15
2023-05-20T17:11:13.117Z,6.75
2023-05-20T17:13:41.607Z,7.88
2023-05-20T17:16:10.015Z,7.28
2023-05-20T17:18:37.313Z,7.22
2023-05-20T17:21:04.376Z,6.53
2023-05-20T17:23:31.300Z,5.95
2023-05-20T17:25:58.297Z,6.72
2023-05-20T17:28:25.360Z,6.43
2023-05-20T17:30:52.269Z,6.50
2023-05-20T17:33:19.460Z,6.28
2023-05-20T17:35:46.472Z,7.47
2023-05-20T17:38:13.329Z,6.43
2023-05-20T17:40:40.547Z,7.40
2023-05-20T17:43:07.460Z,6.72
2023-05-20T17:45:34.574Z,6.97
2023-05-20T17:48:01.519Z,7.28
2023-05-20T17:50:28.466Z,7.10
2023-05-20T17:52:55.600Z,7.00
2023-05-20T17:55:22.513Z,6.55
2023-05-20T17:57:49.425Z,7.03
2023-05-20T18:00:21.241Z,7.05
2023-05-20T18:02:48.929Z,7.50
2023-05-20T18:05:16.979Z,7.80
2023-05-20T18:07:44.236Z,8.18
2023-05-20T18:10:11.828Z,7.90
2023-05-20T18:12:38.876Z,8.77
2023-05-20T18:15:07.081Z,7.97
2023-05-20T18:17:34.073Z,8.02
2023-05-20T18:20:00.985Z,8.23
2023-05-20T18:22:27.955Z,8.35
2023-05-20T18:24:54.875Z,8.20
2023-05-20T18:27:21.741Z,8.70
2023-05-20T18:29:50.047Z,7.68
2023-05-20T18:32:16.944Z,8.38
2023-05-20T18:34:43.837Z,8.25
2023-05-20T18:37:10.749Z,8.55
2023-05-20T18:39:37.931Z,7.72
2023-05-20T18:42:05.226Z,7.60
2023-05-20T18:44:32.088Z,7.65
2023-05-20T18:46:59.114Z,7.57
2023-05-20T18:49:26.219Z,8.38
2023-05-20T18:51:53.130Z,8.00
2023-05-20T18:54:20.095Z,7.70
2023-05-20T18:56:48.592Z,8.57
2023-05-20T18:59:15.625Z,8.45
2023-05-20T19:01:42.577Z,7.90
2023-05-20T19:04:09.694Z,8.55
2023-05-20T19:06:37.666Z,8.13
2023-05-20T19:09:05.028Z,8.38
2023-05-20T19:11:32.146Z,9.27
2023-05-20T19:13:59.367Z,8.23
2023-05-20T19:16:27.017Z,8.82
2023-05-20T19:18:53.963Z,8.70
2023-05-20T19:21:20.966Z,8.38
2023-05-20T19:23:48.757Z,8.40
2023-05-20T19:26:16.353Z,9.02
2023-05-20T19:28:43.291Z,9.05
2023-05-20T19:31:10.506Z,8.88
2023-05-20T19:33:37.609Z,9.20
2023-05-20T19:36:06.012Z,10.65
2023-05-20T19:38:32.896Z,10.90
2023-05-20T19:40:59.821Z,10.05
2023-05-20T19:43:26.700Z,9.35
2023-05-20T19:45:53.673Z,9.77
2023-05-20T19:48:22.196Z,9.43
2023-05-20T19:50:49.746Z,9.52
2023-05-20T19:53:16.892Z,9.90
2023-05-20T19:55:43.818Z,9.40
2023-05-20T19:58:11.115Z,9.55
2023-05-20T20:00:38.372Z,9.88
2023-05-20T20:03:07.291Z,9.23
2023-05-20T20:05:34.788Z,10.57
2023-05-20T20:08:02.102Z,9.73
2023-05-20T20:10:32.332Z,11.05
2023-05-20T20:12:59.287Z,11.00
2023-05-20T20:15:27.101Z,10.70
2023-05-20T20:17:54.721Z,9.75
2023-05-20T20:20:23.431Z,10.63
2023-05-20T20:22:50.576Z,9.65
2023-05-20T20:25:17.883Z,10.32
2023-05-20T20:27:44.795Z,10.38
2023-05-20T20:30:13.721Z,10.60
2023-05-20T20:32:42.025Z,10.48
2023-05-20T20:35:09.814Z,10.02
2023-05-20T20:37:38.479Z,10.45
2023-05-20T20:40:13.581Z,11.00
2023-05-20T20:42:45.088Z,10.88
2023-05-20T20:45:12.392Z,9.63
2023-05-20T20:47:40.887Z,12.18
2023-05-20T20:50:08.989Z,12.82
2023-05-20T20:52:36.425Z,14.38
2023-05-20T20:55:04.532Z,15.85
2023-05-20T20:57:32.086Z,14.13
2023-05-20T20:59:59.133Z,12.55
2023-05-20T21:02:26.231Z,12.30
2023-05-20T21:04:53.198Z,10.68
2023-05-20T21:07:20.158Z,10.75
2023-05-20T21:09:47.150Z,11.45
2023-05-20T21:12:14.162Z,11.73
2023-05-20T21:14:42.913Z,11.85
2023-05-20T21:17:10.094Z,11.15
2023-05-20T21:19:37.016Z,11.35
2023-05-20T21:22:04.424Z,12.40
2023-05-20T21:24:31.372Z,13.45
2023-05-20T21:26:58.353Z,13.00
2023-05-20T21:29:25.462Z,13.75
2023-05-20T21:31:52.442Z,13.10
2023-05-20T21:34:19.336Z,13.85
2023-05-20T21:36:46.322Z,12.55
2023-05-20T21:39:13.254Z,12.25
2023-05-20T21:41:40.591Z,12.23
2023-05-20T21:44:07.496Z,11.93
2023-05-20T21:46:34.408Z,13.15
2023-05-20T21:49:01.362Z,12.30
2023-05-20T21:51:28.233Z,12.70
2023-05-20T21:53:55.132Z,12.93
2023-05-20T21:56:22.609Z,12.57
2023-05-20T21:58:49.900Z,12.32
2023-05-20T22:01:16.839Z,13.07
2023-05-20T22:03:48.004Z,12.40
2023-05-20T22:06:17.100Z,11.68
2023-05-20T22:08:44.038Z,12.55
2023-05-20T22:11:10.950Z,12.02
2023-05-20T22:13:41.567Z,11.85
2023-05-20T22:16:09.465Z,12.35
2023-05-20T22:18:36.492Z,13.60
2023-05-20T22:21:03.955Z,13.07
2023-05-20T22:23:31.075Z,13.45
2023-05-20T22:25:58.019Z,13.38
2023-05-20T22:28:26.210Z,13.27
2023-05-20T22:30:53.234Z,12.98
2023-05-20T22:33:22.861Z,12.27
2023-05-20T22:35:51.352Z,12.57
2023-05-20T22:38:18.252Z,12.20
2023-05-20T22:40:45.404Z,12.73
2023-05-20T22:43:16.494Z,12.75
2023-05-20T22:45:43.556Z,13.65
2023-05-20T22:48:10.523Z,12.80
2023-05-20T22:50:37.415Z,12.90
2023-05-20T22:53:04.356Z,12.80
2023-05-20T22:55:31.223Z,12.20
2023-05-20T22:57:58.205Z,12.38
2023-05-20T23:00:25.163Z,12.48
2023-05-20T23:02:52.416Z,12.20
2023-05-20T23:05:19.525Z,12.25
2023-05-20T23:07:46.529Z,13.35
2023-05-20T23:10:13.496Z,12.57
2023-05-20T23:12:40.400Z,12.63
2023-05-20T23:15:08.485Z,12.90
2023-05-20T23:17:35.581Z,12.77
2023-05-20T23:20:10.785Z,13.40
2023-05-20T23:22:41.183Z,12.82
2023-05-20T23:25:08.856Z,12.80
2023-05-20T23:27:35.967Z,13.68
2023-05-20T23:30:02.930Z,12.57
2023-05-20T23:32:29.857Z,13.02
2023-05-20T23:34:56.751Z,12.10
2023-05-20T23:37:23.704Z,12.20
2023-05-20T23:39:50.922Z,12.73
2023-05-20T23:42:17.837Z,13.20
2023-05-20T23:44:44.713Z,12.43
2023-05-20T23:47:13.361Z,13.02
2023-05-20T23:49:41.558Z,12.60
2023-05-20T23:52:08.538Z,11.88
2023-05-20T23:54:35.475Z,13.02
2023-05-20T23:57:02.449Z,12.68
2023-05-20T23:59:29.424Z,12.30
